Time;durP1;ratioP1;P1;durP2;ratioP2;P2;SDS_P1;SDS_P2;PMS_P1;PMS_P2;Temp;Humidity;BMP_temperature;BMP_pressure;BME280_temperature;BME280_humidity;BME280_pressure;Samples;Min_cycle;Max_cycle;Signal;HPM_P1;HPM_P2
2023/09/10 00:03:16;;;;;;;8.93;8.23;;;;;;;17.24;92.69;153026.09;10459250;28;20049;-73
2023/09/10 00:08:19;;;;;;;8.77;8.18;;;;;;;17.31;92.05;153044.28;10458770;28;20041;-73
2023/09/10 00:13:21;;;;;;;9.70;8.80;;;;;;;17.37;91.44;153059.84;10459572;28;20047;-73
2023/09/10 00:18:23;;;;;;;8.30;7.70;;;;;;;17.03;93.02;152972.91;10441365;28;20041;-74
2023/09/10 00:23:25;;;;;;;7.70;7.10;;;;;;;16.78;94.78;152908.09;10459839;28;20049;-74
2023/09/10 00:28:58;;;;;;;8.60;7.90;;;;;;;16.57;95.90;152854.84;10460743;28;20063;-73
2023/09/10 00:34:00;;;;;;;8.63;7.93;;;;;;;16.56;95.85;152852.25;10335743;28;20391;-72
2023/09/10 00:39:02;;;;;;;8.45;7.57;;;;;;;16.70;96.24;152887.28;10349145;28;20117;-72
2023/09/10 00:44:05;;;;;;;9.30;8.57;;;;;;;16.50;96.86;152836.66;10376844;28;20133;-73
2023/09/10 00:49:07;;;;;;;8.30;7.70;;;;;;;16.49;95.96;152835.38;10376215;28;20042;-73
2023/09/10 00:54:10;;;;;;;9.32;8.63;;;;;;;16.45;96.32;152823.72;10377170;28;20104;-72
2023/09/10 00:59:12;;;;;;;8.70;8.07;;;;;;;16.32;97.15;152791.28;10358771;28;20074;-73
2023/09/10 01:04:16;;;;;;;7.43;6.75;;;;;;;16.52;96.96;152843.19;10358998;28;20052;-73
2023/09/10 01:09:18;;;;;;;8.13;7.50;;;;;;;16.52;97.51;152843.19;10386068;28;20046;-73
2023/09/10 01:14:58;;;;;;;8.63;7.93;;;;;;;16.36;98.33;152802.97;10384778;28;20463;-72
2023/09/10 01:20:23;;;;;;;8.18;7.57;;;;;;;16.54;97.43;152848.34;10317109;28;20050;-73
2023/09/10 01:25:25;;;;;;;9.27;8.55;;;;;;;16.69;96.25;152885.97;10365677;28;20419;-72
2023/09/10 01:30:27;;;;;;;8.43;7.72;;;;;;;16.23;98.70;152769.25;10365307;28;20082;-74
2023/09/10 01:35:45;;;;;;;9.32;8.63;;;;;;;16.40;98.34;152812.03;10365424;28;20046;-73
2023/09/10 01:40:56;;;;;;;9.48;8.77;;;;;;;16.29;98.97;152784.84;10382334;28;20050;-74
2023/09/10 01:45:58;;;;;;;9.15;8.45;;;;;;;16.23;99.40;152767.97;10382346;28;20045;-73
2023/09/10 01:51:00;;;;;;;9.35;8.57;;;;;;;16.36;98.66;152801.66;10381986;28;20049;-73
2023/09/10 01:56:02;;;;;;;10.18;8.68;;;;;;;16.25;99.06;152774.47;10381962;28;20510;-73
2023/09/10 02:01:07;;;;;;;9.27;8.40;;;;;;;16.05;100.00;152722.56;10365343;28;20053;-72
2023/09/10 02:06:09;;;;;;;9.60;9.00;;;;;;;16.20;98.93;152760.16;10382601;28;20053;-71
2023/09/10 02:11:12;;;;;;;10.55;8.73;;;;;;;16.17;99.49;152752.41;10348990;28;20052;-73
2023/09/10 02:16:14;;;;;;;8.55;7.95;;;;;;;15.87;100.00;152678.50;10365002;28;20100;-72
2023/09/10 02:21:16;;;;;;;9.98;9.23;;;;;;;15.99;100.00;152708.34;10381240;28;20046;-72
2023/09/10 02:26:17;;;;;;;8.80;8.10;;;;;;;15.61;100.00;152612.34;10381599;28;20503;-72
2023/09/10 02:31:21;;;;;;;10.13;9.15;;;;;;;15.68;100.00;152629.28;10364115;28;20053;-72
2023/09/10 02:36:23;;;;;;;10.02;9.15;;;;;;;15.85;100.00;152672.06;10364477;28;20069;-73
2023/09/10 02:41:25;;;;;;;9.43;8.73;;;;;;;15.75;100.00;152647.38;10381287;28;20099;-72
2023/09/10 02:46:27;;;;;;;9.00;8.30;;;;;;;15.76;100.00;152650.00;10364489;28;20045;-72
2023/09/10 02:51:29;;;;;;;10.13;9.32;;;;;;;15.80;100.00;152659.03;10381736;28;20034;-73
2023/09/10 02:56:31;;;;;;;9.35;8.57;;;;;;;15.51;100.00;152585.16;10362564;28;20499;-72
2023/09/10 03:01:33;;;;;;;8.65;8.05;;;;;;;15.36;100.00;152547.53;10363187;28;20050;-72
2023/09/10 03:06:35;;;;;;;8.60;7.80;;;;;;;15.54;100.00;152592.94;10362106;28;20069;-72
2023/09/10 03:11:38;;;;;;;8.13;7.53;;;;;;;15.58;100.00;152604.59;10378935;28;20046;-72
2023/09/10 03:16:40;;;;;;;8.40;7.80;;;;;;;15.51;100.00;152586.44;10345200;28;20046;-72
2023/09/10 03:21:44;;;;;;;7.18;6.68;;;;;;;15.27;100.00;152524.22;10362402;28;20407;-72
2023/09/10 03:26:46;;;;;;;7.30;6.80;;;;;;;15.25;100.00;152520.34;10361047;28;20136;-72
2023/09/10 03:31:48;;;;;;;7.70;7.10;;;;;;;15.28;100.00;152526.84;10378033;28;20058;-72
2023/09/10 03:36:50;;;;;;;7.80;7.20;;;;;;;15.55;100.00;152596.81;10361493;28;20041;-73
2023/09/10 03:41:52;;;;;;;7.45;6.85;;;;;;;15.36;100.00;152547.53;10360589;28;20045;-73
2023/09/10 03:46:54;;;;;;;8.00;7.30;;;;;;;15.19;100.00;152503.53;10360425;28;20046;-72
2023/09/10 03:51:57;;;;;;;7.25;6.68;;;;;;;15.10;100.00;152482.81;10359946;28;20053;-73
2023/09/10 03:56:59;;;;;;;7.68;7.07;;;;;;;15.22;100.00;152511.28;10376054;28;20136;-73
2023/09/10 04:02:01;;;;;;;7.28;6.78;;;;;;;15.13;100.00;152489.25;10377149;28;20521;-74
2023/09/10 04:07:03;;;;;;;8.10;7.43;;;;;;;14.93;100.00;152438.75;10376173;28;20037;-73
2023/09/10 04:12:05;;;;;;;7.80;7.13;;;;;;;15.14;100.00;152491.88;10359231;28;20049;-73
2023/09/10 04:17:07;;;;;;;8.25;7.65;;;;;;;15.27;100.00;152524.22;10376165;28;20042;-73
2023/09/10 04:22:08;;;;;;;7.35;6.85;;;;;;;15.00;100.00;152456.88;10376035;28;20068;-73
2023/09/10 04:27:11;;;;;;;7.10;6.60;;;;;;;14.77;100.00;152398.59;10359001;28;20045;-74
2023/09/10 04:32:13;;;;;;;7.43;6.72;;;;;;;14.75;100.00;152393.44;10358707;28;20073;-73
2023/09/10 04:37:15;;;;;;;8.07;7.47;;;;;;;14.91;100.00;152433.56;10359706;28;20136;-73
2023/09/10 04:42:16;;;;;;;7.05;6.40;;;;;;;14.83;100.00;152412.81;10374863;28;20046;-73
2023/09/10 04:47:18;;;;;;;7.75;7.15;;;;;;;15.03;100.00;152464.66;10359172;28;20525;-74
2023/09/10 04:52:20;;;;;;;6.60;6.10;;;;;;;15.09;100.00;152480.19;10376425;28;20071;-73
2023/09/10 04:57:23;;;;;;;7.30;6.72;;;;;;;15.02;100.00;152460.78;10377034;28;20084;-73
2023/09/10 05:02:25;;;;;;;7.32;6.72;;;;;;;14.70;100.00;152380.47;10358801;28;20427;-74
2023/09/10 05:07:27;;;;;;;7.70;7.10;;;;;;;14.91;100.00;152432.25;10376480;28;20049;-73
2023/09/10 05:12:29;;;;;;;7.00;6.50;;;;;;;15.11;100.00;152484.09;10342424;28;20084;-74
2023/09/10 05:17:31;;;;;;;7.20;6.60;;;;;;;15.10;100.00;152482.81;10377475;28;20042;-73
2023/09/10 05:22:33;;;;;;;7.07;6.57;;;;;;;15.13;100.00;152489.25;10358255;28;20050;-74
2023/09/10 05:27:35;;;;;;;7.18;6.68;;;;;;;15.16;100.00;152495.75;10374740;28;20096;-72
2023/09/10 05:32:37;;;;;;;7.10;6.40;;;;;;;15.22;100.00;152511.28;10357329;28;20049;-72
2023/09/10 05:37:39;;;;;;;6.75;6.25;;;;;;;15.29;100.00;152529.44;10357865;28;20142;-73
2023/09/10 05:42:43;;;;;;;6.60;6.10;;;;;;;15.29;100.00;152529.44;10358481;28;20065;-72
2023/09/10 05:47:45;;;;;;;7.68;7.07;;;;;;;15.52;100.00;152589.03;10375085;28;20042;-74
2023/09/10 05:52:47;;;;;;;9.35;6.40;;;;;;;15.75;100.00;152646.09;10374923;28;20056;-72
2023/09/10 05:57:51;;;;;;;6.82;6.32;;;;;;;16.33;100.00;152793.88;10365164;28;20046;-73
2023/09/10 06:02:54;;;;;;;6.72;5.90;;;;;;;17.13;92.49;152998.88;10382699;28;20034;-74
2023/09/10 06:07:56;;;;;;;6.13;5.72;;;;;;;17.33;90.71;153048.16;10364525;28;20075;-73
2023/09/10 06:12:58;;;;;;;5.68;5.28;;;;;;;17.52;88.32;153096.16;10382513;28;20042;-72
2023/09/10 06:18:00;;;;;;;4.75;4.45;;;;;;;17.69;86.46;153139.00;10363253;28;20396;-72
2023/09/10 06:23:02;;;;;;;6.43;5.93;;;;;;;17.74;85.79;153152.00;10362947;28;20080;-72
2023/09/10 06:28:05;;;;;;;5.72;5.13;;;;;;;17.98;83.60;153213.03;10379771;28;20403;-72
2023/09/10 06:33:08;;;;;;;5.75;5.25;;;;;;;18.13;81.75;153253.25;10487398;22;20045;-75
2023/09/10 06:38:10;;;;;;;5.30;4.80;;;;;;;18.24;80.20;153280.56;10487578;28;20102;-76
2023/09/10 06:43:12;;;;;;;5.35;4.95;;;;;;;18.60;78.96;153372.72;10505346;28;20119;-76
2023/09/10 06:48:28;;;;;;;5.15;4.75;;;;;;;18.82;77.91;153428.63;10474990;28;20505;-75
2023/09/10 06:53:30;;;;;;;5.00;4.60;;;;;;;19.29;74.71;153548.09;10501587;28;20051;-75
2023/09/10 06:58:32;;;;;;;5.97;5.47;;;;;;;19.43;74.16;153583.19;10521208;28;20032;-76
2023/09/10 07:03:35;;;;;;;8.07;4.90;;;;;;;19.51;73.19;153603.97;10519672;28;20070;-75
2023/09/10 07:08:37;;;;;;;5.20;4.53;;;;;;;19.70;71.96;153652.16;10484828;28;20054;-75
2023/09/10 07:13:40;;;;;;;6.20;4.88;;;;;;;19.97;70.17;153721.03;10485049;28;20106;-75
2023/09/10 07:18:42;;;;;;;5.60;5.13;;;;;;;19.79;72.85;153675.53;10519615;28;20032;-77
2023/09/10 07:23:44;;;;;;;5.15;4.65;;;;;;;20.30;70.46;153805.50;10506084;28;20056;-76
2023/09/10 07:28:46;;;;;;;4.70;4.30;;;;;;;20.57;68.38;153874.47;10490811;28;20040;-77
2023/09/10 07:33:48;;;;;;;5.55;5.10;;;;;;;20.62;67.79;153887.44;10505773;28;20044;-76
2023/09/10 07:38:50;;;;;;;5.70;5.25;;;;;;;20.54;68.29;153866.69;10487678;28;20580;-77
2023/09/10 07:43:52;;;;;;;6.13;5.05;;;;;;;21.12;64.59;154013.66;10507369;28;20482;-77
2023/09/10 07:48:54;;;;;;;4.97;4.57;;;;;;;21.36;64.26;154076.13;10505626;28;20040;-77
2023/09/10 07:53:57;;;;;;;5.40;5.00;;;;;;;21.45;64.20;154096.94;10509982;28;20447;-76
2023/09/10 07:58:59;;;;;;;4.40;4.10;;;;;;;21.29;65.12;154056.53;10488396;28;20040;-76
2023/09/10 08:04:00;;;;;;;4.65;4.15;;;;;;;21.72;62.98;154165.91;10485700;28;20036;-76
2023/09/10 08:09:03;;;;;;;4.95;4.65;;;;;;;21.60;64.28;154137.28;10503283;28;20032;-75
2023/09/10 08:14:08;;;;;;;5.18;4.78;;;;;;;21.90;63.37;154212.75;10503288;28;20115;-75
2023/09/10 08:19:10;;;;;;;4.70;4.32;;;;;;;22.43;59.69;154348.16;10486266;28;20065;-76
2023/09/10 08:24:12;;;;;;;5.22;4.72;;;;;;;22.44;60.83;154349.47;10503404;28;20040;-76
2023/09/10 08:29:14;;;;;;;5.30;4.80;;;;;;;22.53;61.14;154374.19;10485387;28;20044;-76
2023/09/10 08:34:16;;;;;;;5.03;4.53;;;;;;;22.89;60.30;154466.72;10504142;28;20068;-76
2023/09/10 08:39:18;;;;;;;4.40;4.10;;;;;;;22.81;59.76;154445.84;10485439;28;20116;-77
2023/09/10 08:44:21;;;;;;;5.00;4.70;;;;;;;23.33;58.22;154577.41;10503074;28;20471;-76
2023/09/10 08:49:26;;;;;;;4.15;3.80;;;;;;;23.06;59.85;154508.38;10470328;28;20468;-75
2023/09/10 08:54:28;;;;;;;5.20;4.63;;;;;;;23.44;59.45;154606.06;10469323;28;20068;-76
2023/09/10 08:59:31;;;;;;;5.88;4.32;;;;;;;23.93;57.69;154731.19;10502493;28;20044;-76
2023/09/10 09:04:33;;;;;;;4.53;4.13;;;;;;;23.97;57.07;154740.34;10467873;28;20044;-75
2023/09/10 09:09:39;;;;;;;4.18;3.88;;;;;;;24.17;56.23;154793.78;10483801;28;20044;-77
2023/09/10 09:14:43;;;;;;;4.57;4.28;;;;;;;24.24;55.27;154809.41;10483359;28;20471;-76
2023/09/10 09:19:45;;;;;;;4.43;4.10;;;;;;;24.42;54.70;154857.66;10501942;28;20485;-75
2023/09/10 09:24:49;;;;;;;8.60;4.50;;;;;;;24.99;52.62;155002.38;10483850;28;20052;-77
2023/09/10 09:29:52;;;;;;;4.22;3.90;;;;;;;25.55;52.01;155145.91;10505815;28;20045;-76
2023/09/10 09:34:54;;;;;;;4.22;3.92;;;;;;;26.43;51.32;155370.38;10468408;28;20055;-76
2023/09/10 09:39:56;;;;;;;4.40;4.10;;;;;;;27.04;48.62;155527.03;10493162;28;20049;-76
2023/09/10 09:44:58;;;;;;;5.00;4.13;;;;;;;27.81;45.94;155724.34;10466242;28;20043;-76
2023/09/10 09:50:00;;;;;;;4.40;4.00;;;;;;;27.91;45.45;155749.16;10493457;28;20041;-76
2023/09/10 09:55:05;;;;;;;4.55;4.15;;;;;;;28.62;45.20;155930.81;10507101;28;20409;-76
2023/09/10 10:00:08;;;;;;;4.55;4.10;;;;;;;28.91;43.25;156006.63;10488655;28;20068;-76
2023/09/10 10:05:11;;;;;;;4.35;4.05;;;;;;;29.36;42.82;156120.38;10477866;28;20045;-76
2023/09/10 10:10:15;;;;;;;6.15;3.85;;;;;;;29.88;41.72;156255.09;10464498;28;20045;-74
2023/09/10 10:15:18;;;;;;;3.88;3.55;;;;;;;30.42;40.54;156392.47;10464326;28;20052;-73
2023/09/10 10:20:21;;;;;;;4.10;3.80;;;;;;;30.81;39.59;156493.25;10466551;28;20116;-74
2023/09/10 10:25:24;;;;;;;4.72;4.32;;;;;;;31.27;38.20;156609.69;10469461;28;20053;-74
2023/09/10 10:30:29;;;;;;;4.22;3.92;;;;;;;31.63;37.59;156703.97;10487317;28;20045;-72
2023/09/10 10:35:36;;;;;;;3.45;3.15;;;;;;;31.74;37.92;156730.13;10505216;28;20042;-73
2023/09/10 10:40:40;;;;;;;4.13;3.67;;;;;;;32.24;38.44;156859.81;10467796;28;20037;-73
2023/09/10 10:45:48;;;;;;;5.38;3.75;;;;;;;32.26;35.61;156863.72;10462368;28;20079;-73
2023/09/10 10:50:53;;;;;;;5.07;3.33;;;;;;;32.53;34.35;156934.47;10479313;28;20090;-73
2023/09/10 10:55:56;;;;;;;3.50;3.30;;;;;;;31.87;35.08;156764.22;10475149;28;20057;-73
2023/09/10 11:00:59;;;;;;;3.90;3.60;;;;;;;32.11;33.81;156827.09;10444703;28;20462;-73
2023/09/10 11:06:05;;;;;;;3.83;3.53;;;;;;;32.24;33.90;156858.50;10464246;28;20049;-74
2023/09/10 11:11:09;;;;;;;3.78;3.47;;;;;;;31.79;34.28;156744.56;10464047;28;20371;-73
2023/09/10 11:16:11;;;;;;;3.73;3.40;;;;;;;32.07;32.84;156816.59;10445208;28;20064;-73
2023/09/10 11:21:16;;;;;;;3.70;3.45;;;;;;;31.93;33.24;156779.97;10463059;28;20068;-74
2023/09/10 11:26:18;;;;;;;3.30;3.03;;;;;;;31.97;33.87;156790.44;10463316;28;20094;-73
2023/09/10 11:36:42;;;;;;;3.03;2.80;;;;;;;32.87;32.80;157020.94;10503795;28;20041;-73
2023/09/10 11:41:45;;;;;;;;;;;;;;;32.93;33.39;157035.38;10502839;28;20047;-73
2023/09/10 11:46:48;;;;;;;3.13;2.92;;;;;;;32.48;32.87;156920.09;10502360;28;19920;-73
2023/09/10 11:51:53;;;;;;;3.03;2.72;;;;;;;32.15;32.79;156836.25;10502326;28;20048;-73
2023/09/10 11:56:55;;;;;;;;;;;;;;;32.02;33.38;156803.53;10502239;28;20076;-74
2023/09/10 12:01:58;;;;;;;2.92;2.72;;;;;;;31.79;32.98;156744.56;10502044;28;19966;-74
2023/09/10 12:07:01;;;;;;;3.15;2.83;;;;;;;30.88;34.04;156511.53;10500902;28;20042;-75
2023/09/10 12:12:08;;;;;;;3.80;3.30;;;;;;;31.20;34.76;156592.66;10481926;28;20036;-74
2023/09/10 12:17:10;;;;;;;3.40;3.10;;;;;;;31.18;33.54;156586.16;10481862;28;20139;-74
2023/09/10 12:22:17;;;;;;;3.55;2.97;;;;;;;31.18;32.27;156586.16;10474978;28;20098;-74
2023/09/10 12:27:19;;;;;;;3.03;2.83;;;;;;;31.51;32.53;156672.53;10458065;28;20040;-74
2023/09/10 12:32:21;;;;;;;3.67;3.38;;;;;;;30.86;32.80;156506.34;10468687;22;20073;-73
2023/09/10 12:37:23;;;;;;;2.97;2.78;;;;;;;30.69;33.19;156461.81;10460192;28;20120;-73
2023/09/10 12:42:27;;;;;;;3.30;3.10;;;;;;;30.85;33.86;156503.69;10459413;28;20063;-73
2023/09/10 12:47:29;;;;;;;3.03;2.78;;;;;;;30.51;33.26;156414.72;10458930;28;20041;-72
2023/09/10 12:52:31;;;;;;;2.95;2.75;;;;;;;30.00;33.78;156285.16;10457761;28;20079;-72
2023/09/10 12:57:33;;;;;;;3.53;3.22;;;;;;;30.03;33.88;156293.00;10458831;28;20033;-72
2023/09/10 13:02:35;;;;;;;2.70;2.50;;;;;;;29.95;34.18;156270.78;10439688;28;20053;-72
2023/09/10 13:07:37;;;;;;;3.50;3.20;;;;;;;30.12;33.79;156316.53;10440298;28;20079;-72
2023/09/10 13:12:40;;;;;;;3.08;2.88;;;;;;;29.85;35.01;156245.94;10458374;28;20408;-73
2023/09/10 13:17:41;;;;;;;2.80;2.50;;;;;;;29.71;34.50;156209.34;10457974;28;20041;-73
2023/09/10 13:22:44;;;;;;;3.22;2.90;;;;;;;29.79;34.84;156231.53;10440543;28;20581;-72
2023/09/10 13:27:46;;;;;;;3.00;2.72;;;;;;;29.62;35.11;156188.41;10458003;28;20041;-72
2023/09/10 13:32:48;;;;;;;3.55;2.92;;;;;;;29.52;35.73;156162.19;10440568;28;20037;-71
2023/09/10 13:37:50;;;;;;;4.32;3.33;;;;;;;29.61;35.23;156184.47;10458224;28;20117;-72
2023/09/10 13:42:51;;;;;;;3.60;3.33;;;;;;;29.34;36.62;156116.44;10458135;28;20048;-72
2023/09/10 13:47:53;;;;;;;4.55;3.40;;;;;;;29.31;35.45;156107.31;10458000;28;20041;-72
2023/09/10 13:52:55;;;;;;;3.28;3.08;;;;;;;29.25;35.05;156092.91;10440039;28;20068;-72
2023/09/10 13:57:57;;;;;;;5.07;3.05;;;;;;;29.42;35.14;156137.34;10434599;28;20140;-72
2023/09/10 14:02:59;;;;;;;4.55;3.38;;;;;;;29.48;35.64;156151.72;10439459;28;20048;-72
2023/09/10 14:08:01;;;;;;;3.88;3.47;;;;;;;29.46;35.20;156145.22;10458382;28;20037;-72
2023/09/10 14:13:03;;;;;;;4.63;3.30;;;;;;;29.34;35.78;156116.44;10461026;28;20049;-72
2023/09/10 14:18:06;;;;;;;3.80;3.50;;;;;;;29.30;34.83;156105.97;10410446;28;20041;-72
2023/09/10 14:23:08;;;;;;;3.90;3.35;;;;;;;29.26;35.16;156094.19;10406819;28;20049;-71
2023/09/10 14:28:10;;;;;;;3.25;2.95;;;;;;;29.47;34.31;156147.81;10423254;28;20091;-72
2023/09/10 14:33:12;;;;;;;3.25;3.05;;;;;;;29.42;34.37;156137.34;10425001;28;20506;-72
2023/09/10 14:38:14;;;;;;;3.42;3.22;;;;;;;29.24;35.08;156089.00;10408629;28;20396;-72
2023/09/10 14:43:16;;;;;;;3.65;3.35;;;;;;;28.98;36.03;156022.31;10455761;28;20112;-72
2023/09/10 14:48:18;;;;;;;3.85;3.55;;;;;;;29.08;35.20;156048.44;10425255;28;20530;-72
2023/09/10 14:53:20;;;;;;;3.60;3.40;;;;;;;28.93;36.06;156010.50;10405281;28;20052;-72
2023/09/10 14:58:22;;;;;;;3.55;3.33;;;;;;;29.19;35.46;156075.94;10405753;28;20117;-72
2023/09/10 15:03:24;;;;;;;3.35;3.15;;;;;;;29.02;36.12;156034.09;10406952;28;20111;-72
2023/09/10 15:08:27;;;;;;;3.65;3.38;;;;;;;28.84;36.40;155988.28;10423217;28;20044;-72
2023/09/10 15:13:29;;;;;;;3.55;3.30;;;;;;;28.89;36.88;156000.06;10405161;28;20136;-72
2023/09/10 15:18:32;;;;;;;4.03;3.65;;;;;;;28.91;36.57;156005.31;10423937;28;20048;-72
2023/09/10 15:23:33;;;;;;;3.63;3.33;;;;;;;29.04;36.11;156038.00;10406180;28;20160;-72
2023/09/10 15:28:36;;;;;;;5.93;3.60;;;;;;;28.89;36.27;156000.06;10423192;28;20101;-72
2023/09/10 15:33:37;;;;;;;3.67;3.35;;;;;;;28.52;37.55;155905.97;10421770;28;20120;-72
2023/09/10 15:38:40;;;;;;;4.15;3.75;;;;;;;28.52;36.72;155904.69;10421185;28;20041;-72
2023/09/10 15:43:42;;;;;;;4.03;3.72;;;;;;;28.27;37.17;155840.59;10423134;28;20080;-72
2023/09/10 15:48:45;;;;;;;5.35;4.95;;;;;;;28.23;37.33;155831.44;10387265;28;20442;-72
2023/09/10 15:53:47;;;;;;;3.95;3.65;;;;;;;28.09;37.91;155794.88;10419818;28;20077;-72
2023/09/10 15:58:48;;;;;;;4.18;3.88;;;;;;;28.27;37.89;155840.59;10424906;28;20048;-73
2023/09/10 16:03:50;;;;;;;4.10;3.63;;;;;;;27.89;38.64;155743.91;10453210;28;20045;-72
2023/09/10 16:08:52;;;;;;;4.38;3.85;;;;;;;27.84;38.45;155732.16;10437651;28;20380;-73
2023/09/10 16:13:54;;;;;;;5.22;4.82;;;;;;;27.82;38.87;155726.94;10423360;28;20099;-72
2023/09/10 16:18:58;;;;;;;4.03;3.72;;;;;;;27.51;39.08;155647.22;10420720;28;20048;-72
2023/09/10 16:24:00;;;;;;;3.90;3.60;;;;;;;27.49;39.19;155640.69;10420628;28;20045;-73
2023/09/10 16:29:03;;;;;;;4.85;4.38;;;;;;;27.58;38.52;155664.19;10424418;28;20045;-73
2023/09/10 16:34:06;;;;;;;3.95;3.65;;;;;;;27.33;39.18;155600.22;10432822;28;20497;-73
2023/09/10 16:39:07;;;;;;;4.93;4.43;;;;;;;27.14;39.40;155553.22;10459560;28;20059;-73
2023/09/10 16:44:09;;;;;;;5.47;4.97;;;;;;;26.97;40.52;155507.47;10459777;28;20041;-73
2023/09/10 16:49:11;;;;;;;5.25;4.85;;;;;;;26.82;42.78;155469.59;10460258;28;20410;-73
2023/09/10 16:54:14;;;;;;;5.30;4.90;;;;;;;26.60;43.59;155414.75;10441892;28;20045;-73
2023/09/10 16:59:16;;;;;;;4.82;4.43;;;;;;;26.45;44.12;155374.34;10459056;28;20037;-73
2023/09/10 17:04:18;;;;;;;5.63;5.05;;;;;;;26.39;43.36;155359.94;10459541;28;20491;-73
2023/09/10 17:09:20;;;;;;;4.70;4.30;;;;;;;26.14;44.77;155297.28;10442323;28;20041;-74
2023/09/10 17:14:22;;;;;;;4.55;4.15;;;;;;;26.01;46.02;155262.06;10461935;28;20128;-74
2023/09/10 17:19:24;;;;;;;4.40;4.00;;;;;;;25.78;46.52;155204.66;10463355;28;20116;-73
2023/09/10 17:24:27;;;;;;;7.20;4.13;;;;;;;25.48;47.67;155126.34;10446683;28;20087;-73
2023/09/10 17:29:29;;;;;;;6.22;3.97;;;;;;;25.52;46.96;155136.78;10459924;28;20036;-72
2023/09/10 17:34:31;;;;;;;10.00;4.82;;;;;;;25.14;49.27;155041.53;10461682;28;20049;-73
2023/09/10 17:39:33;;;;;;;5.10;4.70;;;;;;;24.82;49.85;154958.06;10460397;28;20037;-73
2023/09/10 17:44:35;;;;;;;4.80;4.40;;;;;;;24.65;51.24;154916.31;10462578;28;20498;-73
2023/09/10 17:49:38;;;;;;;8.38;4.90;;;;;;;24.46;51.27;154865.50;10446476;28;20041;-73
2023/09/10 17:55:04;;;;;;;5.63;5.13;;;;;;;24.44;49.77;154861.59;10468726;28;20375;-72
2023/09/10 18:00:10;;;;;;;6.15;5.00;;;;;;;24.21;50.95;154801.56;10466659;28;20057;-72
2023/09/10 18:05:12;;;;;;;7.75;4.60;;;;;;;23.97;51.09;154741.63;10466624;28;20479;-72
2023/09/10 18:10:14;;;;;;;5.68;5.20;;;;;;;23.69;53.00;154668.69;10466286;28;20041;-73
2023/09/10 18:15:16;;;;;;;10.68;4.65;;;;;;;23.55;55.01;154634.75;10466800;28;20091;-72
2023/09/10 18:20:19;;;;;;;5.63;5.13;;;;;;;23.19;55.66;154540.94;10465242;28;20037;-73
2023/09/10 18:25:21;;;;;;;5.32;4.88;;;;;;;22.90;57.49;154468.03;10464659;28;20128;-72
2023/09/10 18:30:26;;;;;;;5.32;4.35;;;;;;;23.00;57.14;154492.75;10465293;28;20041;-72
2023/09/10 18:35:28;;;;;;;5.15;4.35;;;;;;;22.84;57.53;154452.31;10491122;23;20044;-75
2023/09/10 18:40:30;;;;;;;6.07;4.32;;;;;;;22.57;58.38;154383.31;10489726;28;20036;-77
2023/09/10 18:45:33;;;;;;;4.93;4.00;;;;;;;22.25;59.64;154301.31;10489203;28;20037;-76
2023/09/10 18:50:34;;;;;;;6.82;3.92;;;;;;;21.98;60.42;154233.56;10489739;28;20040;-76
2023/09/10 18:55:36;;;;;;;6.15;4.10;;;;;;;21.84;60.79;154198.44;10488150;28;20040;-77
2023/09/10 19:00:38;;;;;;;3.97;3.53;;;;;;;21.74;61.13;154172.44;10488071;28;20044;-77
2023/09/10 19:05:42;;;;;;;4.38;3.75;;;;;;;21.57;61.63;154128.19;10507717;28;20049;-78
2023/09/10 19:10:53;;;;;;;3.60;3.30;;;;;;;21.38;61.34;154081.34;10512470;28;20032;-78
2023/09/10 19:15:55;;;;;;;4.90;3.80;;;;;;;21.37;60.90;154077.41;10491665;28;20044;-77
2023/09/10 19:20:57;;;;;;;5.18;4.35;;;;;;;21.32;60.63;154064.41;10506953;28;20053;-77
2023/09/10 19:25:59;;;;;;;3.90;3.20;;;;;;;21.17;60.69;154026.66;10489493;28;20060;-77
2023/09/10 19:31:08;;;;;;;6.95;4.00;;;;;;;21.07;60.51;154001.94;10488979;28;20037;-77
2023/09/10 19:36:10;;;;;;;4.15;3.85;;;;;;;21.00;60.35;153983.72;10505453;28;20068;-78
2023/09/10 19:41:12;;;;;;;4.82;3.55;;;;;;;20.86;61.10;153947.31;10499133;28;20063;-79
2023/09/10 19:46:14;;;;;;;3.83;3.53;;;;;;;20.82;61.32;153938.19;10487436;28;20044;-78
2023/09/10 19:51:17;;;;;;;4.22;3.83;;;;;;;20.78;61.84;153926.50;10491844;28;20037;-78
2023/09/10 19:56:20;;;;;;;4.38;3.97;;;;;;;20.65;62.15;153895.28;10488328;28;20120;-78
2023/09/10 20:01:24;;;;;;;4.47;4.05;;;;;;;20.73;63.08;153914.78;10488102;28;20040;-78
2023/09/10 20:06:27;;;;;;;8.00;3.72;;;;;;;20.52;63.62;153861.47;10485509;28;20090;-77
2023/09/10 20:11:32;;;;;;;4.18;3.67;;;;;;;20.24;64.85;153789.91;10485532;28;20074;-77
2023/09/10 20:16:34;;;;;;;4.20;3.85;;;;;;;20.18;64.42;153774.28;10505061;28;20053;-77
2023/09/10 20:21:36;;;;;;;5.18;4.13;;;;;;;20.41;66.41;153834.13;10485424;28;20071;-78
2023/09/10 20:26:38;;;;;;;4.38;3.97;;;;;;;20.15;66.97;153766.53;10505569;28;20048;-78
2023/09/10 20:31:40;;;;;;;4.90;4.50;;;;;;;20.07;67.21;153747.00;10503966;28;20469;-78
2023/09/10 20:36:42;;;;;;;4.25;3.85;;;;;;;20.17;66.82;153771.69;10503623;28;20048;-78
2023/09/10 20:41:44;;;;;;;5.07;4.57;;;;;;;19.99;67.75;153726.22;10485735;28;20524;-74
2023/09/10 20:46:45;;;;;;;5.13;4.63;;;;;;;19.86;67.72;153693.72;10503489;28;20068;-75
2023/09/10 20:51:49;;;;;;;5.55;5.05;;;;;;;19.55;68.54;153614.38;10502632;28;20045;-75
2023/09/10 20:56:51;;;;;;;5.20;4.70;;;;;;;19.55;69.18;153614.38;10502279;28;20040;-75
2023/09/10 21:01:53;;;;;;;4.82;4.43;;;;;;;19.44;69.12;153585.81;10501020;28;20032;-74
2023/09/10 21:06:55;;;;;;;4.90;4.25;;;;;;;19.42;70.00;153580.59;10482456;28;20045;-74
2023/09/10 21:11:57;;;;;;;6.93;4.72;;;;;;;19.33;70.57;153557.22;10500439;28;20044;-74
2023/09/10 21:16:59;;;;;;;4.35;4.05;;;;;;;19.16;71.05;153515.63;10501039;28;20036;-75
2023/09/10 21:22:04;;;;;;;4.72;4.28;;;;;;;19.00;71.43;153474.09;10501362;28;20040;-74
2023/09/10 21:27:07;;;;;;;5.38;3.72;;;;;;;18.92;71.79;153452.00;10510903;28;20094;-74
2023/09/10 21:32:09;;;;;;;4.95;4.22;;;;;;;18.98;72.89;153468.88;10508873;28;20094;-74
2023/09/10 21:37:11;;;;;;;5.55;4.95;;;;;;;18.94;73.79;153458.47;10508637;28;20106;-74
2023/09/10 21:42:12;;;;;;;4.82;4.43;;;;;;;18.76;74.10;153411.72;10508435;28;20032;-74
2023/09/10 21:47:14;;;;;;;4.50;4.18;;;;;;;18.63;74.16;153380.50;10490832;28;20052;-74
2023/09/10 21:52:16;;;;;;;6.60;5.05;;;;;;;18.61;74.26;153375.31;10509020;28;20436;-75
2023/09/10 21:57:18;;;;;;;4.80;4.20;;;;;;;18.46;75.09;153335.03;10509047;28;20394;-74
2023/09/10 22:02:20;;;;;;;4.75;4.35;;;;;;;18.43;75.62;153328.56;10506562;28;20405;-74
2023/09/10 22:07:21;;;;;;;4.90;4.50;;;;;;;18.38;76.61;153315.59;10507726;28;20094;-74
2023/09/10 22:12:23;;;;;;;4.63;4.22;;;;;;;18.41;76.64;153324.66;10488706;28;20079;-74
2023/09/10 22:17:25;;;;;;;4.68;4.30;;;;;;;18.13;77.60;153253.25;10488046;28;20082;-74
2023/09/10 22:22:27;;;;;;;5.13;4.72;;;;;;;18.09;78.51;153242.88;10506750;28;20036;-74
2023/09/10 22:27:28;;;;;;;4.97;4.57;;;;;;;18.03;78.93;153227.31;10506133;28;20103;-74
2023/09/10 22:32:30;;;;;;;5.95;5.38;;;;;;;18.03;79.70;153227.31;10507350;28;20486;-75
2023/09/10 22:37:32;;;;;;;5.20;4.78;;;;;;;17.91;79.69;153196.16;10486545;28;20047;-75
2023/09/10 22:42:34;;;;;;;5.70;5.20;;;;;;;17.83;80.69;153176.66;10505827;28;20041;-74
2023/09/10 22:47:35;;;;;;;5.57;5.10;;;;;;;17.93;81.35;153201.38;10505327;28;20489;-75
2023/09/10 22:52:37;;;;;;;5.43;4.93;;;;;;;17.76;82.36;153158.53;10505701;28;20040;-74
2023/09/10 22:57:39;;;;;;;5.63;5.13;;;;;;;17.67;82.76;153133.81;10505321;28;20397;-74
2023/09/10 23:02:41;;;;;;;5.10;4.70;;;;;;;17.59;83.64;153114.34;10504979;28;20067;-74
2023/09/10 23:07:43;;;;;;;5.68;5.18;;;;;;;17.67;84.38;153135.13;10504507;28;20083;-75
2023/09/10 23:12:45;;;;;;;5.57;5.18;;;;;;;17.53;85.07;153100.09;10503920;28;20104;-74
2023/09/10 23:17:47;;;;;;;5.55;5.15;;;;;;;17.41;85.15;153068.94;10486225;28;20071;-75